sensor_id;sensor_type;location;lat;lon;timestamp;pressure;altitude;pressure_sealevel;temperature;humidity
706;BME280;21234;48.690;9.016;2023-04-01T00:01:28;94808.19;;;6.57;100.00
706;BME280;21234;48.690;9.016;2023-04-01T00:03:55;94808.75;;;6.59;100.00
706;BME280;21234;48.690;9.016;2023-04-01T00:06:22;94802.56;;;6.64;100.00
706;BME280;21234;48.690;9.016;2023-04-01T00:08:49;94808.22;;;6.62;100.00
706;BME280;21234;48.690;9.016;2023-04-01T00:11:16;94807.94;;;6.59;100.00
706;BME280;21234;48.690;9.016;2023-04-01T00:13:44;94793.88;;;6.57;100.00
706;BME280;21234;48.690;9.016;2023-04-01T00:16:12;94808.75;;;6.59;100.00
706;BME280;21234;48.690;9.016;2023-04-01T00:18:39;94807.94;;;6.59;100.00
706;BME280;21234;48.690;9.016;2023-04-01T00:21:06;94813.91;;;6.61;100.00
706;BME280;21234;48.690;9.016;2023-04-01T00:23:33;94804.72;;;6.62;100.00
706;BME280;21234;48.690;9.016;2023-04-01T00:26:01;94800.44;;;6.66;100.00
706;BME280;21234;48.690;9.016;2023-04-01T00:28:28;94802.88;;;6.67;100.00
706;BME280;21234;48.690;9.016;2023-04-01T00:30:55;94806.38;;;6.68;100.00
706;BME280;21234;48.690;9.016;2023-04-01T00:33:23;94809.59;;;6.65;100.00
706;BME280;21234;48.690;9.016;2023-04-01T00:35:50;94810.72;;;6.69;100.00
706;BME280;21234;48.690;9.016;2023-04-01T00:38:17;94811.53;;;6.69;100.00
706;BME280;21234;48.690;9.016;2023-04-01T00:40:45;94797.47;;;6.67;100.00
706;BME280;21234;48.690;9.016;2023-04-01T00:43:14;94809.91;;;6.68;100.00
706;BME280;21234;48.690;9.016;2023-04-01T00:45:44;94810.41;;;6.65;100.00
706;BME280;21234;48.690;9.016;2023-04-01T00:48:15;94810.41;;;6.65;100.00
706;BME280;21234;48.690;9.016;2023-04-01T00:50:46;94807.19;;;6.68;100.00
706;BME280;21234;48.690;9.016;2023-04-01T00:53:16;94817.16;;;6.63;100.00
706;BME280;21234;48.690;9.016;2023-04-01T00:55:48;94818.47;;;6.60;100.00
706;BME280;21234;48.690;9.016;2023-04-01T00:58:18;94814.97;;;6.60;100.00
706;BME280;21234;48.690;9.016;2023-04-01T01:00:48;94808.19;;;6.57;100.00
706;BME280;21234;48.690;9.016;2023-04-01T01:03:15;94800.63;;;6.54;100.00
706;BME280;21234;48.690;9.016;2023-04-01T01:06:10;94807.91;;;6.54;100.00
706;BME280;21234;48.690;9.016;2023-04-01T01:09:03;94808.97;;;6.53;100.00
706;BME280;21234;48.690;9.016;2023-04-01T01:11:37;94812.22;;;6.55;100.00
706;BME280;21234;48.690;9.016;2023-04-01T01:14:12;94808.47;;;6.56;100.00
706;BME280;21234;48.690;9.016;2023-04-01T01:16:50;94807.91;;;6.54;100.00
706;BME280;21234;48.690;9.016;2023-04-01T01:19:46;94809.53;;;6.55;100.00
706;BME280;21234;48.690;9.016;2023-04-01T01:25:32;94805.50;;;6.57;100.00
706;BME280;21234;48.690;9.016;2023-04-01T01:28:17;94802.75;;;6.52;100.00
706;BME280;21234;48.690;9.016;2023-04-01T01:30:51;94814.91;;;6.50;100.00
706;BME280;21234;48.690;9.016;2023-04-01T01:33:38;94817.38;;;6.56;100.00
706;BME280;21234;48.690;9.016;2023-04-01T01:36:11;94821.41;;;6.54;100.00
706;BME280;21234;48.690;9.016;2023-04-01T01:38:40;94819.75;;;6.48;100.00
706;BME280;21234;48.690;9.016;2023-04-01T01:41:08;94811.94;;;6.46;100.00
706;BME280;21234;48.690;9.016;2023-04-01T01:43:38;94807.84;;;6.44;100.00
706;BME280;21234;48.690;9.016;2023-04-01T01:46:10;94812.66;;;6.36;100.00
706;BME280;21234;48.690;9.016;2023-04-01T01:48:39;94802.72;;;6.42;100.00
706;BME280;21234;48.690;9.016;2023-04-01T01:51:09;94808.38;;;6.40;100.00
706;BME280;21234;48.690;9.016;2023-04-01T01:53:36;94803.50;;;6.37;100.00
706;BME280;21234;48.690;9.016;2023-04-01T01:56:04;94804.88;;;6.40;100.00
706;BME280;21234;48.690;9.016;2023-04-01T01:58:33;94807.25;;;6.36;100.00
706;BME280;21234;48.690;9.016;2023-04-01T02:01:07;94795.66;;;6.36;100.00
706;BME280;21234;48.690;9.016;2023-04-01T02:03:37;94799.72;;;6.38;100.00
706;BME280;21234;48.690;9.016;2023-04-01T02:06:07;94806.69;;;6.34;100.00
706;BME280;21234;48.690;9.016;2023-04-01T02:08:38;94799.16;;;6.36;100.00
706;BME280;21234;48.690;9.016;2023-04-01T02:11:09;94795.66;;;6.36;100.00
706;BME280;21234;48.690;9.016;2023-04-01T02:13:40;94794.28;;;6.33;100.00
706;BME280;21234;48.690;9.016;2023-04-01T02:16:12;94800.50;;;6.34;100.00
706;BME280;21234;48.690;9.016;2023-04-01T02:18:41;94814.00;;;6.34;100.00
706;BME280;21234;48.690;9.016;2023-04-01T02:21:10;94802.34;;;6.28;100.00
706;BME280;21234;48.690;9.016;2023-04-01T02:23:40;94803.97;;;6.29;100.00
706;BME280;21234;48.690;9.016;2023-04-01T02:26:07;94809.63;;;6.28;100.00
706;BME280;21234;48.690;9.016;2023-04-01T02:28:38;94805.75;;;6.19;100.00
706;BME280;21234;48.690;9.016;2023-04-01T02:31:06;94803.34;;;6.17;100.00
706;BME280;21234;48.690;9.016;2023-04-01T02:33:34;94799.84;;;6.17;100.00
706;BME280;21234;48.690;9.016;2023-04-01T02:36:03;94798.78;;;6.23;100.00
706;BME280;21234;48.690;9.016;2023-04-01T02:38:30;94808.75;;;6.17;100.00
706;BME280;21234;48.690;9.016;2023-04-01T02:41:00;94812.53;;;6.21;100.00
706;BME280;21234;48.690;9.016;2023-04-01T02:43:27;94816.84;;;6.17;100.00
706;BME280;21234;48.690;9.016;2023-04-01T02:45:54;94807.13;;;6.16;100.00
706;BME280;21234;48.690;9.016;2023-04-01T02:48:21;94813.03;;;6.18;100.00
706;BME280;21234;48.690;9.016;2023-04-01T02:50:48;94809.25;;;6.14;100.00
706;BME280;21234;48.690;9.016;2023-04-01T02:53:15;94806.84;;;6.18;100.00
706;BME280;21234;48.690;9.016;2023-04-01T02:55:42;94802.50;;;6.12;100.00
706;BME280;21234;48.690;9.016;2023-04-01T02:58:11;94803.88;;;6.14;100.00
706;BME280;21234;48.690;9.016;2023-04-01T03:00:38;94810.88;;;6.15;100.00
706;BME280;21234;48.690;9.016;2023-04-01T03:03:05;94803.59;;;6.16;100.00
706;BME280;21234;48.690;9.016;2023-04-01T03:05:31;94804.69;;;6.20;100.00
706;BME280;21234;48.690;9.016;2023-04-01T03:07:58;94803.88;;;6.19;100.00
706;BME280;21234;48.690;9.016;2023-04-01T03:10:25;94810.06;;;6.15;100.00
706;BME280;21234;48.690;9.016;2023-04-01T03:12:52;94809.25;;;6.14;100.00
706;BME280;21234;48.690;9.016;2023-04-01T03:15:20;94795.78;;;6.14;100.00
706;BME280;21234;48.690;9.016;2023-04-01T03:17:46;94802.50;;;6.12;100.00
706;BME280;21234;48.690;9.016;2023-04-01T03:20:13;94809.53;;;6.13;100.00
706;BME280;21234;48.690;9.016;2023-04-01T03:22:40;94809.25;;;6.14;100.00
706;BME280;21234;48.690;9.016;2023-04-01T03:25:08;94809.53;;;6.18;100.00
706;BME280;21234;48.690;9.016;2023-04-01T03:27:34;94805.75;;;6.14;100.00
706;BME280;21234;48.690;9.016;2023-04-01T03:30:01;94812.16;;;6.07;100.00
706;BME280;21234;48.690;9.016;2023-04-01T03:32:30;94808.44;;;6.14;100.00
706;BME280;21234;48.690;9.016;2023-04-01T03:34:56;94820.81;;;6.10;100.00
706;BME280;21234;48.690;9.016;2023-04-01T03:37:23;94817.34;;;6.14;100.00
706;BME280;21234;48.690;9.016;2023-04-01T03:39:50;94808.44;;;6.14;100.00
706;BME280;21234;48.690;9.016;2023-04-01T03:42:17;94805.75;;;6.14;100.00
706;BME280;21234;48.690;9.016;2023-04-01T03:44:44;94823.00;;;6.13;100.00
706;BME280;21234;48.690;9.016;2023-04-01T03:47:11;94810.28;;;6.08;100.00
706;BME280;21234;48.690;9.016;2023-04-01T03:49:39;94809.25;;;6.14;100.00
706;BME280;21234;48.690;9.016;2023-04-01T03:52:09;94810.59;;;6.12;100.00
706;BME280;21234;48.690;9.016;2023-04-01T03:54:36;94801.94;;;6.10;100.00
706;BME280;21234;48.690;9.016;2023-04-01T03:57:02;94802.50;;;6.12;100.00
706;BME280;21234;48.690;9.016;2023-04-01T03:59:29;94798.13;;;6.05;100.00
706;BME280;21234;48.690;9.016;2023-04-01T04:01:56;94792.72;;;6.05;100.00
706;BME280;21234;48.690;9.016;2023-04-01T04:04:22;94793.28;;;6.07;100.00
706;BME280;21234;48.690;9.016;2023-04-01T04:06:51;94784.06;;;6.03;100.00
706;BME280;21234;48.690;9.016;2023-04-01T04:09:18;94783.22;;;5.98;100.00
706;BME280;21234;48.690;9.016;2023-04-01T04:11:44;94788.81;;;5.91;100.00
706;BME280;21234;48.690;9.016;2023-04-01T04:14:11;94790.44;;;5.92;100.00
706;BME280;21234;48.690;9.016;2023-04-01T04:16:38;94781.81;;;5.90;100.00
706;BME280;21234;48.690;9.016;2023-04-01T04:19:05;94786.59;;;5.83;100.00
706;BME280;21234;48.690;9.016;2023-04-01T04:21:31;94791.16;;;5.83;100.00
706;BME280;21234;48.690;9.016;2023-04-01T04:24:01;94792.78;;;5.84;100.00
706;BME280;21234;48.690;9.016;2023-04-01T04:26:28;94789.50;;;5.77;100.00
706;BME280;21234;48.690;9.016;2023-04-01T04:28:55;94795.44;;;5.79;100.00
706;BME280;21234;48.690;9.016;2023-04-01T04:31:23;94789.50;;;5.77;100.00
706;BME280;21234;48.690;9.016;2023-04-01T04:33:50;94798.09;;;5.73;100.00
706;BME280;21234;48.690;9.016;2023-04-01T04:36:17;94794.84;;;5.71;100.00
706;BME280;21234;48.690;9.016;2023-04-01T04:38:44;94800.78;;;5.73;100.00
706;BME280;21234;48.690;9.016;2023-04-01T04:41:13;94796.72;;;5.71;100.00
706;BME280;21234;48.690;9.016;2023-04-01T04:43:40;94790.25;;;5.72;100.00
706;BME280;21234;48.690;9.016;2023-04-01T04:46:07;94790.19;;;5.67;100.00
706;BME280;21234;48.690;9.016;2023-04-01T04:48:34;94786.44;;;5.68;100.00
706;BME280;21234;48.690;9.016;2023-04-01T04:51:01;94782.09;;;5.67;100.00
706;BME280;21234;48.690;9.016;2023-04-01T04:53:28;94784.56;;;5.68;100.00
706;BME280;21234;48.690;9.016;2023-04-01T04:55:55;94780.03;;;5.74;100.00
706;BME280;21234;48.690;9.016;2023-04-01T04:58:23;94785.72;;;5.78;100.00
706;BME280;21234;48.690;9.016;2023-04-01T05:00:50;94786.53;;;5.78;100.00
706;BME280;21234;48.690;9.016;2023-04-01T05:03:17;94776.31;;;5.85;100.00
706;BME280;21234;48.690;9.016;2023-04-01T05:05:48;94777.13;;;5.86;100.00
706;BME280;21234;48.690;9.016;2023-04-01T05:08:16;94767.72;;;5.88;100.00
706;BME280;21234;48.690;9.016;2023-04-01T05:10:42;94760.25;;;5.95;100.00
706;BME280;21234;48.690;9.016;2023-04-01T05:13:10;94778.38;;;6.00;100.00
706;BME280;21234;48.690;9.016;2023-04-01T05:15:38;94762.75;;;6.02;100.00
706;BME280;21234;48.690;9.016;2023-04-01T05:18:05;94766.25;;;6.02;100.00
706;BME280;21234;48.690;9.016;2023-04-01T05:20:31;94774.41;;;6.07;100.00
706;BME280;21234;48.690;9.016;2023-04-01T05:22:59;94764.16;;;6.10;100.00
706;BME280;21234;48.690;9.016;2023-04-01T05:25:26;94760.69;;;6.14;100.00
706;BME280;21234;48.690;9.016;2023-04-01T05:27:53;94751.28;;;6.17;100.00
706;BME280;21234;48.690;9.016;2023-04-01T05:30:20;94764.47;;;6.18;100.00
706;BME280;21234;48.690;9.016;2023-04-01T05:32:48;94753.16;;;6.21;100.00
706;BME280;21234;48.690;9.016;2023-04-01T05:35:15;94750.50;;;6.26;100.00
706;BME280;21234;48.690;9.016;2023-04-01T05:37:42;94757.78;;;6.26;100.00
706;BME280;21234;48.690;9.016;2023-04-01T05:40:10;94744.84;;;6.28;100.00
706;BME280;21234;48.690;9.016;2023-04-01T05:42:36;94746.19;;;6.25;100.00
706;BME280;21234;48.690;9.016;2023-04-01T05:45:04;94748.91;;;6.30;100.00
706;BME280;21234;48.690;9.016;2023-04-01T05:47:31;94752.97;;;6.33;100.00
706;BME280;21234;48.690;9.016;2023-04-01T05:49:59;94760.59;;;6.41;100.00
706;BME280;21234;48.690;9.016;2023-04-01T05:52:26;94753.91;;;6.49;99.68
706;BME280;21234;48.690;9.016;2023-04-01T05:54:53;94756.06;;;6.52;98.33
706;BME280;21234;48.690;9.016;2023-04-01T05:57:19;94761.50;;;6.62;98.10
706;BME280;21234;48.690;9.016;2023-04-01T05:59:46;94757.03;;;6.78;97.82
706;BME280;21234;48.690;9.016;2023-04-01T06:02:12;94761.88;;;6.76;96.65
706;BME280;21234;48.690;9.016;2023-04-01T06:04:42;94758.59;;;6.68;96.66
706;BME280;21234;48.690;9.016;2023-04-01T06:07:16;94751.91;;;6.86;96.39
706;BME280;21234;48.690;9.016;2023-04-01T06:09:44;94748.44;;;6.96;95.97
706;BME280;21234;48.690;9.016;2023-04-01T06:12:29;94753.84;;;6.96;95.04
706;BME280;21234;48.690;9.016;2023-04-01T06:15:13;94752.47;;;6.93;95.42
706;BME280;21234;48.690;9.016;2023-04-01T06:17:52;94751.41;;;6.94;96.52
706;BME280;21234;48.690;9.016;2023-04-01T06:20:33;94756.03;;;6.99;95.71
706;BME280;21234;48.690;9.016;2023-04-01T06:23:18;94754.41;;;6.98;95.15
706;BME280;21234;48.690;9.016;2023-04-01T06:25:53;94758.69;;;6.94;95.76
706;BME280;21234;48.690;9.016;2023-04-01T06:29:07;94759.25;;;6.96;96.47
706;BME280;21234;48.690;9.016;2023-04-01T06:32:01;94765.66;;;6.85;96.35
706;BME280;21234;48.690;9.016;2023-04-01T06:34:51;94755.44;;;6.82;96.95
706;BME280;21234;48.690;9.016;2023-04-01T06:37:40;94758.09;;;6.77;97.12
706;BME280;21234;48.690;9.016;2023-04-01T06:40:21;94750.53;;;6.73;98.56
706;BME280;21234;48.690;9.016;2023-04-01T06:43:01;94754.81;;;6.69;99.11
706;BME280;21234;48.690;9.016;2023-04-01T06:45:39;94743.22;;;6.74;99.30
706;BME280;21234;48.690;9.016;2023-04-01T06:48:34;94749.69;;;6.73;98.78
706;BME280;21234;48.690;9.016;2023-04-01T06:51:13;94748.38;;;6.76;99.43
706;BME280;21234;48.690;9.016;2023-04-01T06:53:51;94747.03;;;6.83;99.45
706;BME280;21234;48.690;9.016;2023-04-01T06:56:25;94749.47;;;6.85;99.51
706;BME280;21234;48.690;9.016;2023-04-01T06:58:55;94752.97;;;6.75;100.00
706;BME280;21234;48.690;9.016;2023-04-01T07:01:28;94746.22;;;6.78;100.00
706;BME280;21234;48.690;9.016;2023-04-01T07:04:00;94743.53;;;6.78;98.96
706;BME280;21234;48.690;9.016;2023-04-01T07:06:31;94740.50;;;6.69;99.64
706;BME280;21234;48.690;9.016;2023-04-01T07:09:04;94758.91;;;6.77;100.00
706;BME280;21234;48.690;9.016;2023-04-01T07:11:34;94757.03;;;6.78;99.90
706;BME280;21234;48.690;9.016;2023-04-01T07:14:04;94754.59;;;6.81;100.00
706;BME280;21234;48.690;9.016;2023-04-01T07:16:35;94751.34;;;6.79;100.00
706;BME280;21234;48.690;9.016;2023-04-01T07:19:08;94752.69;;;6.77;100.00
706;BME280;21234;48.690;9.016;2023-04-01T07:21:42;94752.44;;;6.83;100.00
706;BME280;21234;48.690;9.016;2023-04-01T07:24:16;94758.66;;;6.79;100.00
706;BME280;21234;48.690;9.016;2023-04-01T07:26:47;94754.59;;;6.81;100.00
706;BME280;21234;48.690;9.016;2023-04-01T07:29:14;94758.09;;;6.77;100.00
706;BME280;21234;48.690;9.016;2023-04-01T07:32:07;94755.94;;;6.79;100.00
706;BME280;21234;48.690;9.016;2023-04-01T07:34:43;94762.16;;;6.79;100.00
706;BME280;21234;48.690;9.016;2023-04-01T07:37:15;94757.31;;;6.81;100.00
706;BME280;21234;48.690;9.016;2023-04-01T07:39:49;94756.50;;;6.86;100.00
706;BME280;21234;48.690;9.016;2023-04-01T07:42:29;94768.69;;;6.93;100.00
706;BME280;21234;48.690;9.016;2023-04-01T07:45:08;94767.31;;;6.91;100.00
706;BME280;21234;48.690;9.016;2023-04-01T07:47:58;94771.63;;;6.87;100.00
706;BME280;21234;48.690;9.016;2023-04-01T07:50:29;94771.41;;;6.98;100.00
706;BME280;21234;48.690;9.016;2023-04-01T07:53:08;94772.75;;;6.96;100.00
706;BME280;21234;48.690;9.016;2023-04-01T07:55:42;94771.97;;;7.00;100.00
706;BME280;21234;48.690;9.016;2023-04-01T07:58:18;94770.63;;;7.03;100.00
706;BME280;21234;48.690;9.016;2023-04-01T08:00:55;94779.31;;;7.10;100.00
706;BME280;21234;48.690;9.016;2023-04-01T08:03:33;94773.38;;;7.13;100.00
706;BME280;21234;48.690;9.016;2023-04-01T08:06:07;94778.75;;;7.08;100.00
706;BME280;21234;48.690;9.016;2023-04-01T08:08:46;94777.41;;;7.05;100.00
706;BME280;21234;48.690;9.016;2023-04-01T08:11:25;94771.69;;;6.97;100.00
706;BME280;21234;48.690;9.016;2023-04-01T08:14:04;94771.72;;;7.02;100.00
706;BME280;21234;48.690;9.016;2023-04-01T08:16:38;94770.59;;;6.98;100.00
706;BME280;21234;48.690;9.016;2023-04-01T08:19:17;94780.88;;;7.01;100.00
706;BME280;21234;48.690;9.016;2023-04-01T08:21:48;94785.22;;;7.02;100.00
706;BME280;21234;48.690;9.016;2023-04-01T08:24:23;94781.44;;;7.03;100.00
706;BME280;21234;48.690;9.016;2023-04-01T08:26:55;94772.22;;;6.99;100.00
706;BME280;21234;48.690;9.016;2023-04-01T08:29:30;94785.44;;;6.90;100.00
706;BME280;21234;48.690;9.016;2023-04-01T08:32:01;94787.56;;;6.88;100.00
706;BME280;21234;48.690;9.016;2023-04-01T08:34:35;94785.94;;;6.82;100.00
706;BME280;21234;48.690;9.016;2023-04-01T08:37:05;94794.84;;;6.78;100.00
706;BME280;21234;48.690;9.016;2023-04-01T08:39:35;94801.00;;;6.73;100.00
706;BME280;21234;48.690;9.016;2023-04-01T08:42:34;94804.53;;;6.73;100.00
706;BME280;21234;48.690;9.016;2023-04-01T08:45:47;94796.94;;;6.70;100.00
706;BME280;21234;48.690;9.016;2023-04-01T08:48:45;94792.00;;;6.57;100.00
706;BME280;21234;48.690;9.016;2023-04-01T08:51:39;94793.09;;;6.61;100.00
706;BME280;21234;48.690;9.016;2023-04-01T08:54:27;94791.81;;;6.69;100.00
706;BME280;21234;48.690;9.016;2023-04-01T08:57:04;94788.59;;;6.72;100.00
706;BME280;21234;48.690;9.016;2023-04-01T08:59:52;94783.47;;;6.76;100.00
706;BME280;21234;48.690;9.016;2023-04-01T09:02:46;94790.28;;;6.88;100.00
706;BME280;21234;48.690;9.016;2023-04-01T09:05:26;94786.06;;;7.07;100.00
706;BME280;21234;48.690;9.016;2023-04-01T09:08:08;94782.84;;;7.21;100.00
706;BME280;21234;48.690;9.016;2023-04-01T09:10:55;94786.91;;;7.23;100.00
706;BME280;21234;48.690;9.016;2023-04-01T09:13:32;94784.25;;;7.38;100.00
706;BME280;21234;48.690;9.016;2023-04-01T09:19:21;94786.50;;;8.13;100.00
706;BME280;21234;48.690;9.016;2023-04-01T09:22:10;94798.44;;;8.62;100.00
706;BME280;21234;48.690;9.016;2023-04-01T09:27:44;94791.38;;;8.77;99.63
706;BME280;21234;48.690;9.016;2023-04-01T09:30:36;94799.81;;;8.45;98.31
706;BME280;21234;48.690;9.016;2023-04-01T09:36:24;94809.50;;;7.85;99.48
706;BME280;21234;48.690;9.016;2023-04-01T09:38:59;94812.47;;;7.68;100.00
706;BME280;21234;48.690;9.016;2023-04-01T09:41:31;94814.34;;;7.62;100.00
706;BME280;21234;48.690;9.016;2023-04-01T09:44:01;94823.81;;;7.65;100.00
706;BME280;21234;48.690;9.016;2023-04-01T09:46:38;94818.09;;;7.46;100.00
706;BME280;21234;48.690;9.016;2023-04-01T09:49:28;94823.22;;;7.48;100.00
706;BME280;21234;48.690;9.016;2023-04-01T09:52:21;94821.31;;;7.48;100.00
706;BME280;21234;48.690;9.016;2023-04-01T09:55:05;94821.03;;;7.39;100.00
706;BME280;21234;48.690;9.016;2023-04-01T10:00:44;94824.81;;;7.38;100.00
706;BME280;21234;48.690;9.016;2023-04-01T10:03:53;94826.19;;;7.41;100.00
706;BME280;21234;48.690;9.016;2023-04-01T10:07:01;94832.34;;;7.26;100.00
706;BME280;21234;48.690;9.016;2023-04-01T10:19:39;94830.00;;;7.60;100.00
706;BME280;21234;48.690;9.016;2023-04-01T10:28:31;94834.97;;;7.99;97.86
706;BME280;21234;48.690;9.016;2023-04-01T10:31:42;94823.88;;;8.26;95.76
706;BME280;21234;48.690;9.016;2023-04-01T10:37:52;94828.72;;;8.90;89.69
706;BME280;21234;48.690;9.016;2023-04-01T10:44:05;94825.63;;;9.27;87.57
706;BME280;21234;48.690;9.016;2023-04-01T10:47:07;94834.25;;;9.44;87.38
706;BME280;21234;48.690;9.016;2023-04-01T10:50:13;94835.38;;;9.33;87.07
706;BME280;21234;48.690;9.016;2023-04-01T11:02:26;94832.78;;;8.92;86.99
706;BME280;21234;48.690;9.016;2023-04-01T11:05:27;94834.44;;;8.78;86.49
706;BME280;21234;48.690;9.016;2023-04-01T11:11:42;94843.63;;;8.92;87.35
706;BME280;21234;48.690;9.016;2023-04-01T11:14:36;94840.69;;;8.73;86.00
706;BME280;21234;48.690;9.016;2023-04-01T11:17:31;94838.25;;;8.77;85.49
706;BME280;21234;48.690;9.016;2023-04-01T11:20:43;94840.97;;;8.67;86.50
706;BME280;21234;48.690;9.016;2023-04-01T11:23:22;94842.81;;;8.82;86.72
706;BME280;21234;48.690;9.016;2023-04-01T11:26:09;94846.94;;;8.69;87.49
706;BME280;21234;48.690;9.016;2023-04-01T11:29:07;94852.34;;;8.74;86.12
706;BME280;21234;48.690;9.016;2023-04-01T11:31:43;94848.56;;;8.70;85.64
706;BME280;21234;48.690;9.016;2023-04-01T11:34:28;94851.53;;;8.73;86.88
706;BME280;21234;48.690;9.016;2023-04-01T11:37:06;94854.78;;;8.75;86.81
706;BME280;21234;48.690;9.016;2023-04-01T11:39:42;94861.81;;;8.71;86.28
706;BME280;21234;48.690;9.016;2023-04-01T11:42:20;94864.50;;;8.82;86.67
706;BME280;21234;48.690;9.016;2023-04-01T11:44:55;94868.28;;;8.91;86.86
706;BME280;21234;48.690;9.016;2023-04-01T11:47:52;94866.69;;;8.69;86.50
706;BME280;21234;48.690;9.016;2023-04-01T11:50:33;94871.56;;;8.77;87.71
706;BME280;21234;48.690;9.016;2023-04-01T11:53:20;94857.19;;;8.87;86.80
706;BME280;21234;48.690;9.016;2023-04-01T11:56:01;94871.53;;;9.08;87.23
706;BME280;21234;48.690;9.016;2023-04-01T11:58:36;94869.38;;;8.95;85.66
706;BME280;21234;48.690;9.016;2023-04-01T12:01:22;94868.53;;;9.09;84.24
706;BME280;21234;48.690;9.016;2023-04-01T12:04:18;94865.31;;;8.97;83.96
706;BME280;21234;48.690;9.016;2023-04-01T12:06:56;94866.34;;;9.17;85.95
706;BME280;21234;48.690;9.016;2023-04-01T12:09:33;94875.00;;;9.19;84.96
706;BME280;21234;48.690;9.016;2023-04-01T12:12:13;94868.50;;;9.15;84.32
706;BME280;21234;48.690;9.016;2023-04-01T12:14:54;94869.31;;;9.20;84.05
706;BME280;21234;48.690;9.016;2023-04-01T12:17:30;94879.88;;;9.17;84.49
706;BME280;21234;48.690;9.016;2023-04-01T12:20:24;94874.78;;;9.00;85.37
706;BME280;21234;48.690;9.016;2023-04-01T12:23:16;94879.94;;;9.01;87.15
706;BME280;21234;48.690;9.016;2023-04-01T12:28:48;94889.16;;;8.85;93.17
706;BME280;21234;48.690;9.016;2023-04-01T12:31:31;94883.78;;;8.65;93.10
706;BME280;21234;48.690;9.016;2023-04-01T12:34:30;94887.84;;;8.72;93.27
706;BME280;21234;48.690;9.016;2023-04-01T12:37:08;94887.03;;;8.67;91.83
706;BME280;21234;48.690;9.016;2023-04-01T12:39:56;94892.72;;;8.75;91.05
706;BME280;21234;48.690;9.016;2023-04-01T12:42:44;94887.22;;;9.11;86.26
706;BME280;21234;48.690;9.016;2023-04-01T12:45:30;94887.91;;;9.52;83.62
706;BME280;21234;48.690;9.016;2023-04-01T12:48:15;94895.31;;;9.31;82.14
706;BME280;21234;48.690;9.016;2023-04-01T12:51:08;94889.84;;;9.47;84.00
706;BME280;21234;48.690;9.016;2023-04-01T12:53:54;94881.66;;;9.62;82.41
706;BME280;21234;48.690;9.016;2023-04-01T12:56:33;94889.78;;;9.62;83.90
706;BME280;21234;48.690;9.016;2023-04-01T12:59:27;94888.28;;;9.25;82.79
706;BME280;21234;48.690;9.016;2023-04-01T13:02:07;94896.13;;;9.42;84.30
706;BME280;21234;48.690;9.016;2023-04-01T13:05:03;94890.97;;;9.30;84.94
706;BME280;21234;48.690;9.016;2023-04-01T13:07:57;94899.13;;;9.20;84.70
706;BME280;21234;48.690;9.016;2023-04-01T13:10:32;94892.06;;;9.24;83.47
706;BME280;21234;48.690;9.016;2023-04-01T13:13:23;94895.34;;;9.11;83.55
706;BME280;21234;48.690;9.016;2023-04-01T13:15:56;94901.34;;;9.08;85.26
706;BME280;21234;48.690;9.016;2023-04-01T13:18:32;94895.66;;;8.99;86.82
706;BME280;21234;48.690;9.016;2023-04-01T13:21:08;94894.81;;;9.14;84.93
706;BME280;21234;48.690;9.016;2023-04-01T13:23:45;94897.50;;;9.14;83.40
706;BME280;21234;48.690;9.016;2023-04-01T13:26:18;94905.09;;;9.22;84.04
706;BME280;21234;48.690;9.016;2023-04-01T13:28:53;94904.81;;;9.24;82.43
706;BME280;21234;48.690;9.016;2023-04-01T13:34:31;94897.03;;;8.97;85.45
706;BME280;21234;48.690;9.016;2023-04-01T13:37:11;94913.22;;;9.22;85.03
706;BME280;21234;48.690;9.016;2023-04-01T13:39:51;94916.22;;;9.21;84.53
706;BME280;21234;48.690;9.016;2023-04-01T13:42:23;94914.09;;;9.07;83.90
706;BME280;21234;48.690;9.016;2023-04-01T13:44:55;94919.19;;;9.29;83.35
706;BME280;21234;48.690;9.016;2023-04-01T13:50:51;94914.56;;;9.35;81.86
706;BME280;21234;48.690;9.016;2023-04-01T13:54:00;94924.88;;;9.23;82.77
706;BME280;21234;48.690;9.016;2023-04-01T13:56:34;94905.63;;;9.29;82.69
706;BME280;21234;48.690;9.016;2023-04-01T13:59:40;94922.44;;;9.36;82.13
706;BME280;21234;48.690;9.016;2023-04-01T14:02:45;94923.25;;;9.32;83.56
706;BME280;21234;48.690;9.016;2023-04-01T14:05:32;94918.59;;;9.42;83.48
706;BME280;21234;48.690;9.016;2023-04-01T14:08:09;94915.13;;;9.22;81.54
706;BME280;21234;48.690;9.016;2023-04-01T14:10:43;94918.38;;;9.14;83.61
706;BME280;21234;48.690;9.016;2023-04-01T14:13:18;94922.19;;;9.18;84.02
706;BME280;21234;48.690;9.016;2023-04-01T14:16:12;94923.28;;;9.17;86.32
706;BME280;21234;48.690;9.016;2023-04-01T14:18:57;94929.78;;;9.26;86.91
706;BME280;21234;48.690;9.016;2023-04-01T14:21:33;94927.59;;;9.13;87.12
706;BME280;21234;48.690;9.016;2023-04-01T14:24:29;94933.88;;;8.93;83.77
706;BME280;21234;48.690;9.016;2023-04-01T14:27:23;94934.69;;;8.93;85.01
706;BME280;21234;48.690;9.016;2023-04-01T14:30:07;94931.97;;;9.03;83.31
706;BME280;21234;48.690;9.016;2023-04-01T14:32:48;94929.81;;;8.85;80.99
706;BME280;21234;48.690;9.016;2023-04-01T14:35:33;94933.34;;;8.91;81.04
706;BME280;21234;48.690;9.016;2023-04-01T14:38:26;94933.06;;;9.02;82.52
706;BME280;21234;48.690;9.016;2023-04-01T14:40:56;94933.34;;;8.96;83.46
706;BME280;21234;48.690;9.016;2023-04-01T14:46:43;94926.28;;;9.05;82.97
706;BME280;21234;48.690;9.016;2023-04-01T14:49:20;94930.91;;;9.09;82.57
706;BME280;21234;48.690;9.016;2023-04-01T14:51:50;94938.47;;;9.13;82.73
706;BME280;21234;48.690;9.016;2023-04-01T14:54:21;94934.41;;;8.95;81.68
706;BME280;21234;48.690;9.016;2023-04-01T14:57:08;94930.09;;;8.89;82.03
706;BME280;21234;48.690;9.016;2023-04-01T14:59:40;94930.91;;;9.09;83.88
706;BME280;21234;48.690;9.016;2023-04-01T15:02:15;94934.97;;;9.07;83.19
706;BME280;21234;48.690;9.016;2023-04-01T15:04:54;94939.84;;;9.05;83.11
706;BME280;21234;48.690;9.016;2023-04-01T15:07:59;94948.50;;;8.97;83.69
706;BME280;21234;48.690;9.016;2023-04-01T15:16:33;94945.22;;;9.15;82.60
706;BME280;21234;48.690;9.016;2023-04-01T15:19:14;94959.06;;;9.24;81.25
706;BME280;21234;48.690;9.016;2023-04-01T15:21:59;94965.84;;;9.26;82.72
706;BME280;21234;48.690;9.016;2023-04-01T15:24:44;94965.59;;;9.07;81.88
706;BME280;21234;48.690;9.016;2023-04-01T15:27:30;94971.53;;;9.15;82.76